createdAt,value
2023-03-08T00:00:55.258Z,674.21
2023-03-08T00:01:55.248Z,673.95
2023-03-08T00:02:55.273Z,674.69
2023-03-08T00:03:55.257Z,674.15
2023-03-08T00:04:55.316Z,673.86
2023-03-08T00:05:55.270Z,674.6
2023-03-08T00:06:55.278Z,674.29
2023-03-08T00:07:55.257Z,674.13
2023-03-08T00:08:55.272Z,674.55
2023-03-08T00:09:55.279Z,674.49
2023-03-08T00:10:58.032Z,674.31
2023-03-08T00:11:55.396Z,674.63
2023-03-08T00:12:55.262Z,676.05
2023-03-08T00:13:55.271Z,676.03
2023-03-08T00:14:55.273Z,676.59
2023-03-08T00:15:55.303Z,676.24
2023-03-08T00:16:55.263Z,676.77
2023-03-08T00:17:55.282Z,677.06
2023-03-08T00:18:55.279Z,677.06
2023-03-08T00:19:55.279Z,677.34
2023-03-08T00:20:55.272Z,677.27
2023-03-08T00:21:58.364Z,677.64
2023-03-08T00:22:55.289Z,677.09
2023-03-08T00:23:55.285Z,677.2
2023-03-08T00:24:55.284Z,678.16
2023-03-08T00:25:55.279Z,678.27
2023-03-08T00:26:55.289Z,678.36
2023-03-08T00:27:55.280Z,678.41
2023-03-08T00:28:55.311Z,678.14
2023-03-08T00:29:55.288Z,678.35
2023-03-08T00:30:55.288Z,678.9
2023-03-08T00:31:55.320Z,679.28
2023-03-08T00:32:55.314Z,679.08
2023-03-08T00:33:55.366Z,679.62
2023-03-08T00:34:55.296Z,678.94
2023-03-08T00:35:55.324Z,678.92
2023-03-08T00:36:55.338Z,679.46
2023-03-08T00:37:55.303Z,679.46
2023-03-08T00:38:55.300Z,679.76
2023-03-08T00:39:55.298Z,679.56
2023-03-08T00:40:55.300Z,679.76
2023-03-08T00:41:55.310Z,680.43
2023-03-08T00:42:55.307Z,680.23
2023-03-08T00:43:55.310Z,680.55
2023-03-08T00:44:55.310Z,680.73
2023-03-08T00:45:55.313Z,680.99
2023-03-08T00:46:55.377Z,680.98
2023-03-08T00:47:55.347Z,681.15
2023-03-08T00:48:55.319Z,681.49
2023-03-08T00:49:55.311Z,681.43
2023-03-08T00:50:55.315Z,681.25
2023-03-08T00:51:55.330Z,681.62
2023-03-08T00:52:55.336Z,681.3
2023-03-08T00:53:55.324Z,681.45
2023-03-08T00:54:55.330Z,680.98
2023-03-08T00:55:55.330Z,680.95
2023-03-08T00:56:55.353Z,680.53
2023-03-08T00:57:55.323Z,680.47
2023-03-08T00:58:55.329Z,680.77
2023-03-08T00:59:55.326Z,680.53
2023-03-08T01:00:55.436Z,680.53
2023-03-08T01:01:55.330Z,680.3
2023-03-08T01:02:55.343Z,680.79
2023-03-08T01:03:55.398Z,680.96
2023-03-08T01:04:55.333Z,680.63
2023-03-08T01:05:55.347Z,681.15
2023-03-08T01:06:55.345Z,681.08
2023-03-08T01:07:55.343Z,681.64
2023-03-08T01:08:55.354Z,682.16
2023-03-08T01:09:55.347Z,682.06
2023-03-08T01:10:55.357Z,681.63
2023-03-08T01:11:55.349Z,681.14
2023-03-08T01:12:55.354Z,681.74
2023-03-08T01:13:55.344Z,681.38
2023-03-08T01:14:55.349Z,682.1
2023-03-08T01:15:55.362Z,682.2
2023-03-08T01:16:55.355Z,682.99
2023-03-08T01:17:55.349Z,682.64
2023-03-08T01:18:55.357Z,682.69
2023-03-08T01:19:55.388Z,682.67
2023-03-08T01:20:55.362Z,683.27
2023-03-08T01:21:58.185Z,683.12
2023-03-08T01:22:55.359Z,683.28
2023-03-08T01:23:55.358Z,683.35
2023-03-08T01:24:55.365Z,683.49
2023-03-08T01:25:55.369Z,683.91
2023-03-08T01:26:55.361Z,683.71
2023-03-08T01:27:55.366Z,683.73
2023-03-08T01:28:55.376Z,683.55
2023-03-08T01:29:55.366Z,684.33
2023-03-08T01:30:55.367Z,684.12
2023-03-08T01:31:55.373Z,683.94
2023-03-08T01:32:58.423Z,683.61
2023-03-08T01:33:55.377Z,683.59
2023-03-08T01:34:55.382Z,683.88
2023-03-08T01:35:55.429Z,683.71
2023-03-08T01:36:55.380Z,683.79
2023-03-08T01:37:55.405Z,684.11
2023-03-08T01:38:55.437Z,683.55
2023-03-08T01:39:55.379Z,683.66
2023-03-08T01:40:55.403Z,683.47
2023-03-08T01:41:55.379Z,683.81
2023-03-08T01:42:55.387Z,683.14
2023-03-08T01:43:55.391Z,684.18
2023-03-08T01:44:55.393Z,683.81
2023-03-08T01:45:55.392Z,684.02
2023-03-08T01:46:55.385Z,684.33
2023-03-08T01:47:55.393Z,684.1
2023-03-08T01:48:55.439Z,684.19
2023-03-08T01:49:55.404Z,684.31
2023-03-08T01:50:55.398Z,683.58
2023-03-08T01:51:55.428Z,683.65
2023-03-08T01:52:55.400Z,683.61
2023-03-08T01:53:55.396Z,683.74
2023-03-08T01:54:55.404Z,683.55
2023-03-08T01:55:55.407Z,683.04
2023-03-08T01:56:55.398Z,683.16
2023-03-08T01:57:55.406Z,682.9
2023-03-08T01:58:55.413Z,682.97
2023-03-08T01:59:55.401Z,683.11
2023-03-08T02:00:55.529Z,683.68
2023-03-08T02:01:55.415Z,683.45
2023-03-08T02:02:55.456Z,683.31
2023-03-08T02:03:55.408Z,683.63
2023-03-08T02:04:58.196Z,683.62
2023-03-08T02:05:55.417Z,683.56
2023-03-08T02:06:55.415Z,683.27
2023-03-08T02:07:55.450Z,683.6
2023-03-08T02:08:55.424Z,682.71
2023-03-08T02:09:55.463Z,682.68
2023-03-08T02:10:55.424Z,681.87
2023-03-08T02:11:55.421Z,681.43
2023-03-08T02:12:55.436Z,681.17
2023-03-08T02:13:55.456Z,680.86
2023-03-08T02:14:55.428Z,680.52
2023-03-08T02:15:56.485Z,680.35
2023-03-08T02:16:55.437Z,679.88
2023-03-08T02:17:55.436Z,680.57
2023-03-08T02:18:55.431Z,680.3
2023-03-08T02:19:55.443Z,680.69
2023-03-08T02:20:55.444Z,681.15
2023-03-08T02:21:55.459Z,680.82
2023-03-08T02:22:55.436Z,681.51
2023-03-08T02:23:55.468Z,681.27
2023-03-08T02:24:55.459Z,681.14
2023-03-08T02:25:55.451Z,681.93
2023-03-08T02:26:58.926Z,681.57
2023-03-08T02:27:55.452Z,682.05
2023-03-08T02:28:55.454Z,682.58
2023-03-08T02:29:55.452Z,683.14
2023-03-08T02:30:55.465Z,682.87
2023-03-08T02:31:55.463Z,682.59
2023-03-08T02:32:55.453Z,682.44
2023-03-08T02:33:55.468Z,682.84
2023-03-08T02:34:55.462Z,682.76
2023-03-08T02:35:55.552Z,683.42
2023-03-08T02:36:55.470Z,684.11
2023-03-08T02:37:58.271Z,685.47
2023-03-08T02:38:55.469Z,685.4
2023-03-08T02:39:55.618Z,685.97
2023-03-08T02:40:55.469Z,686.23
2023-03-08T02:41:55.465Z,686.52
2023-03-08T02:42:55.486Z,686.54
2023-03-08T02:43:55.468Z,686.24
2023-03-08T02:44:55.502Z,686.36
2023-03-08T02:45:55.471Z,686.02
2023-03-08T02:46:55.484Z,686.2
2023-03-08T02:47:55.480Z,685.4
2023-03-08T02:48:58.290Z,685.04
2023-03-08T02:49:55.484Z,683.65
2023-03-08T02:50:55.492Z,683.03
2023-03-08T02:51:55.478Z,682.55
2023-03-08T02:52:55.485Z,682.61
2023-03-08T02:53:55.483Z,681.61
2023-03-08T02:54:55.493Z,681.95
2023-03-08T02:55:55.511Z,680.61
2023-03-08T02:56:55.492Z,681.39
2023-03-08T02:57:55.486Z,680.99
2023-03-08T02:58:55.489Z,680.97
2023-03-08T02:59:55.488Z,680.12
2023-03-08T03:00:55.488Z,679.71
2023-03-08T03:01:55.493Z,679.18
2023-03-08T03:02:55.500Z,678.34
2023-03-08T03:03:55.501Z,678.22
2023-03-08T03:04:55.528Z,677.39
2023-03-08T03:05:55.630Z,677.65
2023-03-08T03:06:55.504Z,677.39
2023-03-08T03:07:55.511Z,676.5
2023-03-08T03:08:55.513Z,676.37
2023-03-08T03:09:55.529Z,675.99
2023-03-08T03:10:55.516Z,675.21
2023-03-08T03:11:55.531Z,674.81
2023-03-08T03:12:55.509Z,674.66
2023-03-08T03:13:55.510Z,673.65
2023-03-08T03:14:55.513Z,672.64
2023-03-08T03:15:55.546Z,672.63
2023-03-08T03:16:55.518Z,672.81
2023-03-08T03:17:55.518Z,671.69
2023-03-08T03:18:55.515Z,671.49
2023-03-08T03:19:55.516Z,670.6
2023-03-08T03:20:55.511Z,669.68
2023-03-08T03:21:55.519Z,669.44
2023-03-08T03:22:55.522Z,668.93
2023-03-08T03:23:55.530Z,668.88
2023-03-08T03:24:55.532Z,668.71
2023-03-08T03:25:55.518Z,667.87
2023-03-08T03:26:55.536Z,667.74
2023-03-08T03:27:55.557Z,667.89
2023-03-08T03:28:55.540Z,668.02
2023-03-08T03:29:55.521Z,667.63
2023-03-08T03:30:55.558Z,667.66
2023-03-08T03:31:55.549Z,667.23
2023-03-08T03:32:55.561Z,667.56
2023-03-08T03:33:55.537Z,666.9
2023-03-08T03:34:55.543Z,666.68
2023-03-08T03:35:55.563Z,666.14
2023-03-08T03:36:55.541Z,666.02
2023-03-08T03:37:55.563Z,665.02
2023-03-08T03:38:55.546Z,665.01
2023-03-08T03:39:55.548Z,664.48
2023-03-08T03:40:55.564Z,664.32
2023-03-08T03:41:55.540Z,664.89
2023-03-08T03:42:55.566Z,664.86
2023-03-08T03:43:55.576Z,664.85
2023-03-08T03:44:55.560Z,665.02
2023-03-08T03:45:55.554Z,663.82
2023-03-08T03:46:55.551Z,664.32
2023-03-08T03:47:55.577Z,663.21
2023-03-08T03:48:55.566Z,662.89
2023-03-08T03:49:55.561Z,662.5
2023-03-08T03:50:55.572Z,662.03
2023-03-08T03:51:55.564Z,661.8
2023-03-08T03:52:55.590Z,660.36
2023-03-08T03:53:55.567Z,659.72
2023-03-08T03:54:55.574Z,657.95
2023-03-08T03:55:55.585Z,656.72
2023-03-08T03:56:55.579Z,655.95
2023-03-08T03:57:55.605Z,654.76
2023-03-08T03:58:55.593Z,652.98
2023-03-08T03:59:58.575Z,651.15
2023-03-08T04:00:55.578Z,650.89
2023-03-08T04:01:55.583Z,650.63
2023-03-08T04:02:55.620Z,650.28
2023-03-08T04:03:55.629Z,649.17
2023-03-08T04:04:55.584Z,649.06
2023-03-08T04:05:55.589Z,648.75
2023-03-08T04:06:55.608Z,647.57
2023-03-08T04:07:55.632Z,646.62
2023-03-08T04:08:55.598Z,646.27
2023-03-08T04:09:55.593Z,645.05
2023-03-08T04:10:55.603Z,644.29
2023-03-08T04:11:55.600Z,643.48
2023-03-08T04:12:55.630Z,642.56
2023-03-08T04:13:55.606Z,642.03
2023-03-08T04:14:55.612Z,641.71
2023-03-08T04:15:55.640Z,640.53
2023-03-08T04:16:55.606Z,640.44
2023-03-08T04:17:55.638Z,639.7
2023-03-08T04:18:55.609Z,639.7
2023-03-08T04:19:55.617Z,638.95
2023-03-08T04:20:55.609Z,639.2
2023-03-08T04:21:55.619Z,638.44
2023-03-08T04:22:55.650Z,637.74
2023-03-08T04:23:55.612Z,637
2023-03-08T04:24:55.633Z,636.71
2023-03-08T04:25:55.618Z,635.7
2023-03-08T04:26:55.654Z,635.01
2023-03-08T04:27:55.652Z,634.66
2023-03-08T04:28:55.621Z,634.29
2023-03-08T04:29:55.630Z,633.36
2023-03-08T04:30:55.624Z,634.05
2023-03-08T04:31:58.507Z,633.15
2023-03-08T04:32:55.672Z,632
2023-03-08T04:33:55.627Z,630.47
2023-03-08T04:34:55.628Z,629.78
2023-03-08T04:35:55.649Z,628.71
2023-03-08T04:36:55.654Z,628.14
2023-03-08T04:37:55.658Z,627.49
2023-03-08T04:38:55.632Z,627.17
2023-03-08T04:39:55.644Z,626.4
2023-03-08T04:40:55.645Z,626.05
2023-03-08T04:41:55.645Z,624.82
2023-03-08T04:42:56.995Z,623.85
2023-03-08T04:43:55.640Z,623.59
2023-03-08T04:44:55.648Z,622.98
2023-03-08T04:45:55.648Z,623.12
2023-03-08T04:46:55.718Z,623.28
2023-03-08T04:47:55.677Z,623.33
2023-03-08T04:48:55.672Z,622.67
2023-03-08T04:49:55.664Z,621.61
2023-03-08T04:50:55.661Z,620.84
2023-03-08T04:51:55.666Z,619.22
2023-03-08T04:52:55.662Z,618.4
2023-03-08T04:53:58.483Z,617.47
2023-03-08T04:54:55.659Z,615.68
2023-03-08T04:55:55.665Z,616.06
2023-03-08T04:56:58.776Z,614.36
2023-03-08T04:57:55.682Z,613.81
2023-03-08T04:58:55.665Z,612.89
2023-03-08T04:59:55.665Z,612.29
2023-03-08T05:00:55.681Z,612.34
2023-03-08T05:01:55.778Z,611.23
2023-03-08T05:02:55.684Z,611.42
2023-03-08T05:03:55.707Z,610.95
2023-03-08T05:04:58.725Z,610.98
2023-03-08T05:05:55.675Z,610.38
2023-03-08T05:06:55.684Z,610.05
2023-03-08T05:07:55.687Z,608.9
2023-03-08T05:08:55.702Z,608.91
2023-03-08T05:09:55.681Z,608.71
2023-03-08T05:10:55.682Z,608
2023-03-08T05:11:55.684Z,607.77
2023-03-08T05:12:55.693Z,606.89
2023-03-08T05:13:55.694Z,607.27
2023-03-08T05:14:55.696Z,607.23
2023-03-08T05:15:55.737Z,606.98
2023-03-08T05:16:55.698Z,606.76
2023-03-08T05:17:55.694Z,606.95
2023-03-08T05:18:55.701Z,606.03
2023-03-08T05:19:55.732Z,605.29
2023-03-08T05:20:55.703Z,604.91
2023-03-08T05:21:55.700Z,605.53
2023-03-08T05:22:59.201Z,604.91
2023-03-08T05:23:55.715Z,603.8
2023-03-08T05:24:55.707Z,602.45
2023-03-08T05:25:55.711Z,601.46
2023-03-08T05:26:55.714Z,600.74
2023-03-08T05:27:55.708Z,599.9
2023-03-08T05:28:55.716Z,598.99
2023-03-08T05:29:55.717Z,597.8
2023-03-08T05:30:55.722Z,597.27
2023-03-08T05:31:55.790Z,596.52
2023-03-08T05:32:55.726Z,595.98
2023-03-08T05:33:55.725Z,593.98
2023-03-08T05:34:55.718Z,593.65
2023-03-08T05:35:55.778Z,592.56
2023-03-08T05:36:55.730Z,592.54
2023-03-08T05:37:55.722Z,591.31
2023-03-08T05:38:55.723Z,591.79
2023-03-08T05:39:55.733Z,590.87
2023-03-08T05:40:55.750Z,590.59
2023-03-08T05:41:55.733Z,590.24
2023-03-08T05:42:55.741Z,589.52
2023-03-08T05:43:55.764Z,589.33
2023-03-08T05:44:55.740Z,589.41
2023-03-08T05:45:55.836Z,589.43
2023-03-08T05:46:55.747Z,589.83
2023-03-08T05:47:55.751Z,590.19
2023-03-08T05:48:55.760Z,590.59
2023-03-08T05:49:55.739Z,591.12
2023-03-08T05:50:55.747Z,590.6
2023-03-08T05:51:55.773Z,590.4
2023-03-08T05:52:55.751Z,590.22
2023-03-08T05:53:55.766Z,589.89
2023-03-08T05:54:55.747Z,589.28
2023-03-08T05:55:55.748Z,589.46
2023-03-08T05:56:55.767Z,588.69
2023-03-08T05:57:55.752Z,588.98
2023-03-08T05:58:55.787Z,589.16
2023-03-08T05:59:55.752Z,589.16
2023-03-08T06:00:55.757Z,590.29
2023-03-08T06:01:55.792Z,589.93
2023-03-08T06:02:55.792Z,590.21
2023-03-08T06:03:55.795Z,590.75
2023-03-08T06:04:55.901Z,590.05
2023-03-08T06:05:55.771Z,591.34
2023-03-08T06:06:55.769Z,592.43
2023-03-08T06:07:55.798Z,592.39
2023-03-08T06:08:55.796Z,592.6
2023-03-08T06:09:55.789Z,593.7
2023-03-08T06:10:55.774Z,592.77
2023-03-08T06:11:55.773Z,593.47
2023-03-08T06:12:55.779Z,593.01
2023-03-08T06:13:55.804Z,593.66
2023-03-08T06:14:55.781Z,594.36
2023-03-08T06:15:58.562Z,594.19
2023-03-08T06:16:55.811Z,594.97
2023-03-08T06:17:55.785Z,594.85
2023-03-08T06:18:55.809Z,595.58
2023-03-08T06:19:55.785Z,595.93
2023-03-08T06:20:55.782Z,595.71
2023-03-08T06:21:55.785Z,596.06
2023-03-08T06:22:55.793Z,596
2023-03-08T06:23:55.848Z,596.22
2023-03-08T06:24:55.795Z,596.21
2023-03-08T06:25:55.795Z,596.71
2023-03-08T06:26:58.825Z,596.73
2023-03-08T06:27:55.792Z,596.86
2023-03-08T06:28:55.836Z,597.26
2023-03-08T06:29:55.797Z,597.56
2023-03-08T06:30:55.863Z,598.05
2023-03-08T06:31:55.803Z,598.98
2023-03-08T06:32:55.804Z,599.36
2023-03-08T06:33:55.836Z,600.02
2023-03-08T06:34:55.811Z,600.73
2023-03-08T06:35:55.918Z,601.25
2023-03-08T06:36:55.820Z,602.19
2023-03-08T06:37:55.828Z,603.08
2023-03-08T06:38:55.848Z,603.98
2023-03-08T06:39:55.844Z,604.84
2023-03-08T06:40:55.821Z,605.27
2023-03-08T06:41:55.831Z,606.31
2023-03-08T06:42:55.831Z,605.88
2023-03-08T06:43:55.852Z,607.3
2023-03-08T06:44:55.837Z,608.5
2023-03-08T06:45:55.854Z,609.58
2023-03-08T06:46:55.838Z,611.34
2023-03-08T06:47:55.839Z,611.88
2023-03-08T06:48:55.862Z,612.35
2023-03-08T06:49:55.838Z,613.26
2023-03-08T06:50:55.845Z,613.2
2023-03-08T06:51:55.869Z,615.28
2023-03-08T06:52:55.850Z,616.13
2023-03-08T06:53:55.865Z,617.58
2023-03-08T06:54:55.852Z,617.95
2023-03-08T06:55:55.892Z,618.69
2023-03-08T06:56:55.848Z,619.57
2023-03-08T06:57:55.858Z,619.93
2023-03-08T06:58:57.048Z,620.55
2023-03-08T06:59:55.852Z,620.66
2023-03-08T07:00:55.879Z,620.61
2023-03-08T07:01:55.866Z,621.74
2023-03-08T07:02:55.865Z,622.74
2023-03-08T07:03:55.878Z,622.78
2023-03-08T07:04:55.868Z,623.09
2023-03-08T07:05:55.866Z,623.36
2023-03-08T07:06:55.885Z,624.97
2023-03-08T07:07:55.872Z,624.53
2023-03-08T07:08:55.861Z,625.4
2023-03-08T07:09:58.880Z,625.43
2023-03-08T07:10:55.876Z,625.85
2023-03-08T07:11:55.926Z,626.01
2023-03-08T07:12:56.190Z,626.18
2023-03-08T07:13:55.873Z,626.68
2023-03-08T07:14:55.877Z,626.7
2023-03-08T07:15:55.942Z,627.17
2023-03-08T07:16:55.872Z,627.69
2023-03-08T07:17:55.889Z,628.91
2023-03-08T07:18:55.875Z,629.97
2023-03-08T07:19:55.885Z,630.65
2023-03-08T07:20:58.757Z,631.16
2023-03-08T07:21:55.886Z,632.26
2023-03-08T07:22:55.889Z,633.66
2023-03-08T07:23:55.893Z,634.16
2023-03-08T07:24:55.889Z,635.15
2023-03-08T07:25:55.898Z,636.54
2023-03-08T07:26:55.887Z,638.5
2023-03-08T07:27:55.917Z,639.07
2023-03-08T07:28:55.944Z,639.55
2023-03-08T07:29:56.325Z,639.92
2023-03-08T07:30:55.896Z,640.45
2023-03-08T07:31:58.830Z,640.25
2023-03-08T07:32:55.984Z,640.07
2023-03-08T07:33:55.899Z,639.09
2023-03-08T07:34:55.908Z,638.57
2023-03-08T07:35:55.915Z,637.92
2023-03-08T07:36:55.903Z,637.55
2023-03-08T07:37:55.908Z,636.66
2023-03-08T07:38:55.907Z,635.67
2023-03-08T07:39:55.919Z,635.31
2023-03-08T07:40:55.932Z,634.39
2023-03-08T07:41:55.916Z,633.58
2023-03-08T07:42:55.918Z,632.5
2023-03-08T07:43:55.949Z,631.44
2023-03-08T07:44:55.925Z,630.94
2023-03-08T07:45:55.924Z,630.24
2023-03-08T07:46:55.921Z,629.77
2023-03-08T07:47:55.922Z,629.82
2023-03-08T07:48:55.925Z,630.55
2023-03-08T07:49:55.928Z,630.88
2023-03-08T07:50:55.956Z,631.04
2023-03-08T07:51:55.943Z,631.45
2023-03-08T07:52:55.937Z,632.87
2023-03-08T07:54:04.813Z,633.22
2023-03-08T07:54:55.937Z,634.08
2023-03-08T07:55:55.942Z,634.4
2023-03-08T07:56:55.956Z,635.71
2023-03-08T07:57:55.946Z,635.68
2023-03-08T07:58:55.946Z,636.35
2023-03-08T07:59:56.037Z,636.96
2023-03-08T08:00:55.954Z,637.24
2023-03-08T08:01:55.953Z,637.98
2023-03-08T08:02:55.977Z,638.88
2023-03-08T08:03:56.005Z,639.04
2023-03-08T08:04:56.191Z,638.39
2023-03-08T08:05:56.017Z,637.86
2023-03-08T08:06:55.957Z,636.41
2023-03-08T08:07:55.982Z,635.06
2023-03-08T08:08:55.960Z,632.97
2023-03-08T08:09:55.983Z,630.85
2023-03-08T08:10:55.960Z,629.44
2023-03-08T08:11:55.968Z,628.32
2023-03-08T08:12:55.970Z,627.47
2023-03-08T08:13:55.962Z,626.81
2023-03-08T08:14:55.992Z,626.71
2023-03-08T08:15:56.123Z,626.09
2023-03-08T08:16:55.972Z,625.92
2023-03-08T08:17:55.975Z,624.83
2023-03-08T08:18:55.975Z,624.39
2023-03-08T08:19:55.998Z,622.52
2023-03-08T08:20:55.982Z,621.52
2023-03-08T08:21:55.981Z,619.91
2023-03-08T08:22:55.978Z,618.35
2023-03-08T08:23:55.975Z,616.91
2023-03-08T08:24:56.015Z,615.44
2023-03-08T08:25:56.070Z,614.72
2023-03-08T08:26:55.989Z,614.31
2023-03-08T08:27:55.992Z,613.65
2023-03-08T08:28:55.990Z,612.56
2023-03-08T08:29:56.029Z,611.41
2023-03-08T08:30:55.999Z,610.65
2023-03-08T08:31:56.011Z,610.12
2023-03-08T08:32:55.994Z,609.37
2023-03-08T08:33:55.989Z,609.76
2023-03-08T08:34:56.022Z,608.09
2023-03-08T08:35:56.013Z,607.03
2023-03-08T08:36:55.996Z,606.37
2023-03-08T08:37:56.129Z,605.48
2023-03-08T08:38:58.888Z,604.51
2023-03-08T08:39:56.022Z,603.93
2023-03-08T08:40:56.008Z,603.58
2023-03-08T08:41:56.012Z,604.46
2023-03-08T08:42:56.008Z,603.51
2023-03-08T08:43:56.012Z,603.13
2023-03-08T08:44:56.039Z,602.04
2023-03-08T08:45:56.024Z,600.49
2023-03-08T08:46:56.015Z,599.58
2023-03-08T08:47:56.077Z,598.83
2023-03-08T08:48:56.041Z,597.19
2023-03-08T08:49:56.042Z,596.67
2023-03-08T08:50:56.015Z,596.28
2023-03-08T08:51:56.026Z,594.43
2023-03-08T08:52:56.071Z,593.82
2023-03-08T08:53:59.192Z,592.38
2023-03-08T08:54:56.069Z,591.97
2023-03-08T08:55:56.024Z,590.59
2023-03-08T08:56:56.025Z,590.09
2023-03-08T08:57:56.031Z,589.12
2023-03-08T08:58:56.041Z,588.38
2023-03-08T08:59:56.057Z,588.88
2023-03-08T09:00:56.046Z,588.5
2023-03-08T09:01:56.043Z,589.35
2023-03-08T09:02:56.062Z,588.86
2023-03-08T09:03:56.154Z,589.57
2023-03-08T09:04:56.077Z,589.22
2023-03-08T09:05:56.043Z,588.67
2023-03-08T09:06:56.046Z,587.98
2023-03-08T09:07:56.043Z,587.19
2023-03-08T09:08:56.054Z,585.89
2023-03-08T09:09:56.085Z,584.93
2023-03-08T09:10:56.053Z,584.77
2023-03-08T09:11:56.237Z,583.94
2023-03-08T09:12:57.725Z,584.41
2023-03-08T09:13:56.072Z,583.58
2023-03-08T09:14:56.073Z,583.32
2023-03-08T09:15:56.062Z,582.71
2023-03-08T09:16:56.144Z,580.57
2023-03-08T09:17:56.066Z,579.34
2023-03-08T09:18:56.066Z,576.91
2023-03-08T09:19:56.125Z,574.98
2023-03-08T09:20:56.070Z,572.85
2023-03-08T09:21:56.078Z,570.25
2023-03-08T09:22:56.135Z,568.23
2023-03-08T09:23:56.071Z,566.43
2023-03-08T09:24:56.098Z,564.77
2023-03-08T09:26:00.358Z,563.91
2023-03-08T09:26:56.099Z,563.03
2023-03-08T09:27:57.101Z,562.3
2023-03-08T09:28:56.091Z,561.29
2023-03-08T09:29:56.117Z,560.29
2023-03-08T09:30:56.090Z,559.31
2023-03-08T09:31:57.744Z,558.22
2023-03-08T09:32:56.115Z,555.47
2023-03-08T09:33:56.096Z,553.77
2023-03-08T09:34:56.113Z,551.91
2023-03-08T09:35:56.158Z,550.64
2023-03-08T09:36:58.904Z,548.5
2023-03-08T09:37:56.633Z,546.34
2023-03-08T09:38:56.181Z,543.21
2023-03-08T09:39:56.106Z,540.49
2023-03-08T09:40:57.128Z,537.81
2023-03-08T09:41:56.130Z,534.78
2023-03-08T09:42:56.108Z,531.34
2023-03-08T09:43:56.110Z,529.14
2023-03-08T09:44:56.118Z,527.16
2023-03-08T09:45:56.201Z,523.94
2023-03-08T09:46:56.124Z,522.14
2023-03-08T09:47:58.905Z,520.45
2023-03-08T09:48:56.117Z,518.22
2023-03-08T09:49:56.124Z,516.03
2023-03-08T09:50:56.121Z,513.98
2023-03-08T09:51:56.161Z,512.43
2023-03-08T09:52:56.147Z,509.21
2023-03-08T09:53:56.145Z,508.98
2023-03-08T09:54:56.151Z,507.33
2023-03-08T09:55:56.129Z,506.59
2023-03-08T09:56:56.128Z,506.67
2023-03-08T09:57:56.232Z,506.25
2023-03-08T09:58:58.899Z,505.58
2023-03-08T09:59:56.160Z,506.14
2023-03-08T10:00:56.161Z,505.74
2023-03-08T10:01:56.148Z,507.62
2023-03-08T10:02:56.171Z,508.16
2023-03-08T10:03:56.176Z,509.25
2023-03-08T10:05:10.161Z,509.53
2023-03-08T10:05:57.228Z,509.62
2023-03-08T10:06:56.193Z,510.54
2023-03-08T10:07:56.218Z,511.7
2023-03-08T10:08:57.162Z,511.7
2023-03-08T10:09:59.011Z,512.68
2023-03-08T10:10:56.214Z,512.47
2023-03-08T10:11:58.875Z,512.6
2023-03-08T10:12:56.180Z,513.85
2023-03-08T10:13:56.199Z,513.41
2023-03-08T10:14:56.202Z,513.91
2023-03-08T10:15:56.232Z,513.62
2023-03-08T10:16:56.255Z,515.18
2023-03-08T10:17:58.886Z,515.56
2023-03-08T10:18:56.167Z,514.64
2023-03-08T10:19:56.159Z,514.3
2023-03-08T10:20:56.330Z,514.58
2023-03-08T10:21:56.184Z,515.35
2023-03-08T10:22:56.171Z,515.73
2023-03-08T10:23:56.198Z,515.43
2023-03-08T10:24:56.164Z,516.3
2023-03-08T10:25:56.202Z,514.79
2023-03-08T10:26:56.176Z,515.3
2023-03-08T10:27:56.177Z,516.67
2023-03-08T10:28:56.174Z,516.76
2023-03-08T10:29:56.215Z,518.67
2023-03-08T10:30:56.341Z,518.01
2023-03-08T10:31:56.194Z,518.79
2023-03-08T10:32:56.610Z,518.22
2023-03-08T10:33:56.180Z,517.79
2023-03-08T10:34:56.193Z,517.18
2023-03-08T10:35:56.264Z,516.97
2023-03-08T10:36:56.219Z,517.72
2023-03-08T10:37:56.189Z,517.17
2023-03-08T10:38:56.195Z,516.02
2023-03-08T10:39:56.213Z,516.07
2023-03-08T10:40:56.214Z,515.35
2023-03-08T10:41:56.205Z,514.68
2023-03-08T10:42:56.204Z,514.87
2023-03-08T10:43:56.200Z,515.23
2023-03-08T10:44:56.209Z,516.03
2023-03-08T10:45:56.240Z,517.41
2023-03-08T10:46:56.212Z,516.97
2023-03-08T10:47:56.299Z,517.18
2023-03-08T10:48:56.213Z,515.54
2023-03-08T10:49:56.223Z,515.17
2023-03-08T10:50:56.228Z,515.38
2023-03-08T10:51:56.332Z,514.77
2023-03-08T10:52:56.262Z,514.96
2023-03-08T10:53:56.222Z,515.27
2023-03-08T10:54:56.409Z,516.06
2023-03-08T10:55:56.312Z,516.25
2023-03-08T10:56:56.228Z,515.64
2023-03-08T10:57:56.278Z,515.41
2023-03-08T10:58:56.226Z,515.27
2023-03-08T10:59:56.224Z,515.07
2023-03-08T11:00:56.257Z,514.9
2023-03-08T11:01:56.236Z,515.91
2023-03-08T11:02:56.294Z,516.75
2023-03-08T11:03:56.229Z,517.39
2023-03-08T11:04:56.312Z,519.9
2023-03-08T11:05:56.259Z,520.91
2023-03-08T11:06:56.233Z,521.71
2023-03-08T11:07:56.256Z,521.53
2023-03-08T11:08:56.250Z,523.2
2023-03-08T11:09:56.244Z,523.13
2023-03-08T11:10:56.305Z,524.51
2023-03-08T11:11:56.277Z,524.84
2023-03-08T11:12:56.252Z,526.2
2023-03-08T11:13:56.245Z,526.28
2023-03-08T11:14:56.292Z,527.38
2023-03-08T11:15:56.323Z,528.52
2023-03-08T11:16:56.276Z,529.7
2023-03-08T11:17:57.284Z,530.52
2023-03-08T11:18:56.289Z,532.01
2023-03-08T11:19:58.984Z,533.36
2023-03-08T11:20:57.214Z,533.36
2023-03-08T11:21:56.262Z,534.35
2023-03-08T11:22:56.272Z,535
2023-03-08T11:23:56.324Z,535.2
2023-03-08T11:24:56.277Z,535.33
2023-03-08T11:25:56.288Z,535.92
2023-03-08T11:26:56.297Z,535.72
2023-03-08T11:27:56.448Z,535.37
2023-03-08T11:28:56.343Z,536.02
2023-03-08T11:29:56.270Z,535.92
2023-03-08T11:30:56.304Z,536.26
2023-03-08T11:31:56.272Z,536.79
2023-03-08T11:32:56.476Z,537.95
2023-03-08T11:33:56.383Z,538.69
2023-03-08T11:34:56.287Z,540.03
2023-03-08T11:35:56.334Z,541.32
2023-03-08T11:36:56.289Z,542.81
2023-03-08T11:37:56.291Z,543.39
2023-03-08T11:38:56.291Z,543.69
2023-03-08T11:39:56.285Z,544.41
2023-03-08T11:40:56.290Z,544.2
2023-03-08T11:41:56.304Z,543.68
2023-03-08T11:42:56.292Z,544.86
2023-03-08T11:43:56.323Z,544.96
2023-03-08T11:44:56.325Z,546.73
2023-03-08T11:45:56.292Z,547.89
2023-03-08T11:46:56.343Z,548.76
2023-03-08T11:47:56.316Z,549.99
2023-03-08T11:48:56.375Z,550.77
2023-03-08T11:49:56.311Z,552.46
2023-03-08T11:50:56.311Z,553.9
2023-03-08T11:51:56.307Z,555.19
2023-03-08T11:52:56.308Z,556.49
2023-03-08T11:53:56.308Z,557.97
2023-03-08T11:54:56.340Z,558.34
2023-03-08T11:55:56.317Z,559.39
2023-03-08T11:56:56.317Z,560.26
2023-03-08T11:57:56.313Z,559.76
2023-03-08T11:58:56.314Z,559.95
2023-03-08T11:59:56.377Z,559.86
2023-03-08T12:00:56.343Z,560.5
2023-03-08T12:01:56.335Z,560.85
2023-03-08T12:02:56.346Z,561.25
2023-03-08T12:03:59.195Z,561.57
2023-03-08T12:04:56.497Z,561.17
2023-03-08T12:05:56.492Z,561.39
2023-03-08T12:06:56.459Z,560.51
2023-03-08T12:07:56.363Z,560.94
2023-03-08T12:08:56.365Z,561.02
2023-03-08T12:09:56.387Z,561.11
2023-03-08T12:10:56.358Z,561.57
2023-03-08T12:11:56.336Z,562.37
2023-03-08T12:12:56.340Z,563.33
2023-03-08T12:13:56.343Z,563.95
2023-03-08T12:14:57.400Z,565.29
2023-03-08T12:15:56.483Z,565.2
2023-03-08T12:16:56.474Z,565.54
2023-03-08T12:17:56.349Z,565.55
2023-03-08T12:18:56.352Z,565.83
2023-03-08T12:19:56.352Z,566.55
2023-03-08T12:20:56.343Z,567.15
2023-03-08T12:21:56.404Z,567.86
2023-03-08T12:22:56.367Z,568.64
2023-03-08T12:23:56.383Z,569.44
2023-03-08T12:24:56.377Z,569.96
2023-03-08T12:25:59.163Z,570.28
2023-03-08T12:26:56.429Z,571.49
2023-03-08T12:27:56.405Z,572.59
2023-03-08T12:28:56.366Z,574.27
2023-03-08T12:29:56.360Z,574.31
2023-03-08T12:30:56.375Z,575.84